sensor_id;sensor_type;location;lat;lon;timestamp;pressure;altitude;pressure_sealevel;temperature;humidity
32638;BME280;19045;52.268;10.506;2023-03-14T00:01:19;98126.09;;;11.63;98.31
32638;BME280;19045;52.268;10.506;2023-03-14T00:03:46;98139.06;;;11.61;98.31
32638;BME280;19045;52.268;10.506;2023-03-14T00:06:13;98143.97;;;11.59;98.98
32638;BME280;19045;52.268;10.506;2023-03-14T00:08:42;98125.59;;;11.61;98.87
32638;BME280;19045;52.268;10.506;2023-03-14T00:11:11;98116.25;;;11.67;98.75
32638;BME280;19045;52.268;10.506;2023-03-14T00:13:39;98120.72;;;11.71;98.39
32638;BME280;19045;52.268;10.506;2023-03-14T00:16:08;98094.63;;;11.72;98.66
32638;BME280;19045;52.268;10.506;2023-03-14T00:18:35;98095.06;;;11.74;98.43
32638;BME280;19045;52.268;10.506;2023-03-14T00:21:04;98080.38;;;11.71;97.95
32638;BME280;19045;52.268;10.506;2023-03-14T00:23:33;98087.16;;;11.69;99.37
32638;BME280;19045;52.268;10.506;2023-03-14T00:26:00;98101.72;;;11.68;98.64
32638;BME280;19045;52.268;10.506;2023-03-14T00:28:28;98111.38;;;11.69;98.64
32638;BME280;19045;52.268;10.506;2023-03-14T00:30:56;98078.59;;;11.67;98.36
32638;BME280;19045;52.268;10.506;2023-03-14T00:33:23;98057.72;;;11.64;98.41
32638;BME280;19045;52.268;10.506;2023-03-14T00:35:57;98075.78;;;11.63;98.66
32638;BME280;19045;52.268;10.506;2023-03-14T00:38:25;98099.66;;;11.65;98.34
32638;BME280;19045;52.268;10.506;2023-03-14T00:40:52;98111.66;;;11.67;97.26
32638;BME280;19045;52.268;10.506;2023-03-14T00:43:20;98117.22;;;11.62;98.04
32638;BME280;19045;52.268;10.506;2023-03-14T00:45:48;98118.63;;;11.68;97.29
32638;BME280;19045;52.268;10.506;2023-03-14T00:48:16;98104.88;;;11.70;97.59
32638;BME280;19045;52.268;10.506;2023-03-14T00:50:42;98097.75;;;11.74;96.02
32638;BME280;19045;52.268;10.506;2023-03-14T00:53:09;98107.56;;;11.70;96.41
32638;BME280;19045;52.268;10.506;2023-03-14T00:55:36;98104.28;;;11.73;95.47
32638;BME280;19045;52.268;10.506;2023-03-14T00:58:03;98120.88;;;11.75;96.05
32638;BME280;19045;52.268;10.506;2023-03-14T01:00:29;98131.78;;;11.70;96.03
32638;BME280;19045;52.268;10.506;2023-03-14T01:02:56;98128.47;;;11.73;95.85
32638;BME280;19045;52.268;10.506;2023-03-14T01:05:24;98125.91;;;11.68;95.87
32638;BME280;19045;52.268;10.506;2023-03-14T01:07:51;98124.31;;;11.67;95.76
32638;BME280;19045;52.268;10.506;2023-03-14T01:10:18;98120.72;;;11.63;95.77
32638;BME280;19045;52.268;10.506;2023-03-14T01:12:44;98114.22;;;11.64;95.70
32638;BME280;19045;52.268;10.506;2023-03-14T01:15:11;98110.59;;;11.60;96.11
32638;BME280;19045;52.268;10.506;2023-03-14T01:17:38;98100.94;;;11.59;95.48
32638;BME280;19045;52.268;10.506;2023-03-14T01:20:07;98084.03;;;11.58;94.89
32638;BME280;19045;52.268;10.506;2023-03-14T01:22:37;98091.28;;;11.58;95.47
32638;BME280;19045;52.268;10.506;2023-03-14T01:25:05;98094.31;;;11.56;94.77
32638;BME280;19045;52.268;10.506;2023-03-14T01:27:32;98100.00;;;11.55;95.04
32638;BME280;19045;52.268;10.506;2023-03-14T01:29:59;98103.16;;;11.57;94.41
32638;BME280;19045;52.268;10.506;2023-03-14T01:32:26;98097.31;;;11.55;94.83
32638;BME280;19045;52.268;10.506;2023-03-14T01:34:52;98100.66;;;11.52;94.37
32638;BME280;19045;52.268;10.506;2023-03-14T01:37:19;98066.16;;;11.54;94.95
32638;BME280;19045;52.268;10.506;2023-03-14T01:39:47;98064.25;;;11.54;94.00
32638;BME280;19045;52.268;10.506;2023-03-14T01:42:14;98057.47;;;11.48;93.84
32638;BME280;19045;52.268;10.506;2023-03-14T01:44:49;98055.13;;;11.47;94.01
32638;BME280;19045;52.268;10.506;2023-03-14T01:47:16;98038.34;;;11.50;93.36
32638;BME280;19045;52.268;10.506;2023-03-14T01:49:43;98040.88;;;11.46;93.21
32638;BME280;19045;52.268;10.506;2023-03-14T01:52:12;98056.03;;;11.51;92.37
32638;BME280;19045;52.268;10.506;2023-03-14T01:54:43;98078.03;;;11.53;91.90
32638;BME280;19045;52.268;10.506;2023-03-14T01:57:14;98077.53;;;11.51;91.86
32638;BME280;19045;52.268;10.506;2023-03-14T01:59:46;98069.03;;;11.49;90.52
32638;BME280;19045;52.268;10.506;2023-03-14T02:02:15;98049.09;;;11.50;90.65
32638;BME280;19045;52.268;10.506;2023-03-14T02:04:42;98050.34;;;11.43;90.40
32638;BME280;19045;52.268;10.506;2023-03-14T02:07:12;98044.06;;;11.39;90.89
32638;BME280;19045;52.268;10.506;2023-03-14T02:09:41;98036.31;;;11.38;90.28
32638;BME280;19045;52.268;10.506;2023-03-14T02:12:09;98035.38;;;11.34;89.56
32638;BME280;19045;52.268;10.506;2023-03-14T02:14:39;98028.09;;;11.34;88.51
32638;BME280;19045;52.268;10.506;2023-03-14T02:17:07;98020.53;;;11.28;88.32
32638;BME280;19045;52.268;10.506;2023-03-14T02:19:44;98019.28;;;11.25;89.25
32638;BME280;19045;52.268;10.506;2023-03-14T02:22:15;97989.09;;;11.20;88.84
32638;BME280;19045;52.268;10.506;2023-03-14T02:24:46;98001.25;;;11.17;88.37
32638;BME280;19045;52.268;10.506;2023-03-14T02:27:16;98001.59;;;11.16;88.93
32638;BME280;19045;52.268;10.506;2023-03-14T02:29:49;98031.16;;;11.16;88.74
32638;BME280;19045;52.268;10.506;2023-03-14T02:32:17;98029.56;;;11.15;88.32
32638;BME280;19045;52.268;10.506;2023-03-14T02:34:48;98040.16;;;11.11;88.75
32638;BME280;19045;52.268;10.506;2023-03-14T02:37:17;98059.59;;;11.08;89.01
32638;BME280;19045;52.268;10.506;2023-03-14T02:39:45;98064.97;;;11.08;88.75
32638;BME280;19045;52.268;10.506;2023-03-14T02:42:16;98055.66;;;11.06;88.75
32638;BME280;19045;52.268;10.506;2023-03-14T02:44:51;98045.84;;;11.01;88.97
32638;BME280;19045;52.268;10.506;2023-03-14T02:47:20;98048.41;;;11.06;88.56
32638;BME280;19045;52.268;10.506;2023-03-14T02:49:48;98023.09;;;11.07;88.25
32638;BME280;19045;52.268;10.506;2023-03-14T02:52:14;98047.13;;;11.04;88.65
32638;BME280;19045;52.268;10.506;2023-03-14T02:54:41;98038.94;;;11.00;88.70
32638;BME280;19045;52.268;10.506;2023-03-14T02:57:08;98031.47;;;10.97;88.58
32638;BME280;19045;52.268;10.506;2023-03-14T02:59:35;98028.78;;;10.97;88.47
32638;BME280;19045;52.268;10.506;2023-03-14T03:02:02;98022.16;;;10.95;88.84
32638;BME280;19045;52.268;10.506;2023-03-14T03:04:29;98005.44;;;10.89;88.69
32638;BME280;19045;52.268;10.506;2023-03-14T03:06:55;98018.06;;;10.88;88.36
32638;BME280;19045;52.268;10.506;2023-03-14T03:09:22;98009.84;;;10.85;88.60
32638;BME280;19045;52.268;10.506;2023-03-14T03:11:48;97997.53;;;10.84;88.75
32638;BME280;19045;52.268;10.506;2023-03-14T03:14:15;97997.84;;;10.82;88.79
32638;BME280;19045;52.268;10.506;2023-03-14T03:16:43;97987.75;;;10.79;88.96
32638;BME280;19045;52.268;10.506;2023-03-14T03:19:10;97985.72;;;10.76;89.04
32638;BME280;19045;52.268;10.506;2023-03-14T03:21:38;97974.16;;;10.76;89.17
32638;BME280;19045;52.268;10.506;2023-03-14T03:24:05;97966.91;;;10.76;88.90
32638;BME280;19045;52.268;10.506;2023-03-14T03:26:33;97980.00;;;10.78;88.97
32638;BME280;19045;52.268;10.506;2023-03-14T03:29:00;97973.69;;;10.74;89.38
32638;BME280;19045;52.268;10.506;2023-03-14T03:31:26;97987.75;;;10.71;89.54
32638;BME280;19045;52.268;10.506;2023-03-14T03:33:54;97981.28;;;10.72;88.75
32638;BME280;19045;52.268;10.506;2023-03-14T03:36:21;97979.88;;;10.66;89.23
32638;BME280;19045;52.268;10.506;2023-03-14T03:38:48;97979.41;;;10.64;89.70
32638;BME280;19045;52.268;10.506;2023-03-14T03:41:15;97983.97;;;10.63;89.33
32638;BME280;19045;52.268;10.506;2023-03-14T03:43:41;97964.84;;;10.65;89.05
32638;BME280;19045;52.268;10.506;2023-03-14T03:46:08;97961.72;;;10.63;88.98
32638;BME280;19045;52.268;10.506;2023-03-14T03:48:35;97939.44;;;10.62;88.85
32638;BME280;19045;52.268;10.506;2023-03-14T03:51:03;97953.50;;;10.59;89.33
32638;BME280;19045;52.268;10.506;2023-03-14T03:53:30;97947.03;;;10.60;89.31
32638;BME280;19045;52.268;10.506;2023-03-14T03:55:57;97955.53;;;10.62;89.53
32638;BME280;19045;52.268;10.506;2023-03-14T03:58:23;97965.34;;;10.58;89.90
32638;BME280;19045;52.268;10.506;2023-03-14T04:00:50;97969.00;;;10.54;89.69
32638;BME280;19045;52.268;10.506;2023-03-14T04:03:16;97952.88;;;10.54;89.54
32638;BME280;19045;52.268;10.506;2023-03-14T04:05:43;97957.47;;;10.53;89.95
32638;BME280;19045;52.268;10.506;2023-03-14T04:08:11;97966.78;;;10.47;89.43
32638;BME280;19045;52.268;10.506;2023-03-14T04:10:37;97972.28;;;10.51;89.87
32638;BME280;19045;52.268;10.506;2023-03-14T04:13:04;97976.88;;;10.50;89.60
32638;BME280;19045;52.268;10.506;2023-03-14T04:15:30;97979.22;;;10.52;90.16
32638;BME280;19045;52.268;10.506;2023-03-14T04:17:58;97962.81;;;10.53;90.07
32638;BME280;19045;52.268;10.506;2023-03-14T04:20:24;97964.84;;;10.48;90.13
32638;BME280;19045;52.268;10.506;2023-03-14T04:22:51;97974.84;;;10.47;90.59
32638;BME280;19045;52.268;10.506;2023-03-14T04:25:19;97974.19;;;10.50;89.61
32638;BME280;19045;52.268;10.506;2023-03-14T04:27:46;97972.59;;;10.49;90.07
32638;BME280;19045;52.268;10.506;2023-03-14T04:30:13;97966.44;;;10.49;90.02
32638;BME280;19045;52.268;10.506;2023-03-14T04:32:40;97973.72;;;10.48;90.04
32638;BME280;19045;52.268;10.506;2023-03-14T04:35:07;97985.22;;;10.49;89.78
32638;BME280;19045;52.268;10.506;2023-03-14T04:37:33;97978.63;;;10.46;89.82
32638;BME280;19045;52.268;10.506;2023-03-14T04:40:00;97987.63;;;10.50;88.79
32638;BME280;19045;52.268;10.506;2023-03-14T04:42:28;97993.59;;;10.56;88.62
32638;BME280;19045;52.268;10.506;2023-03-14T04:44:55;97995.66;;;10.59;88.07
32638;BME280;19045;52.268;10.506;2023-03-14T04:47:21;97992.03;;;10.63;88.17
32638;BME280;19045;52.268;10.506;2023-03-14T04:49:48;97982.56;;;10.66;88.28
32638;BME280;19045;52.268;10.506;2023-03-14T04:52:14;97993.94;;;10.63;89.14
32638;BME280;19045;52.268;10.506;2023-03-14T04:54:41;97987.44;;;10.55;89.61
32638;BME280;19045;52.268;10.506;2023-03-14T04:57:07;97990.91;;;10.56;90.28
32638;BME280;19045;52.268;10.506;2023-03-14T04:59:35;97984.78;;;10.47;91.27
32638;BME280;19045;52.268;10.506;2023-03-14T05:02:02;97981.13;;;10.43;91.83
32638;BME280;19045;52.268;10.506;2023-03-14T05:04:28;97977.97;;;10.32;93.01
32638;BME280;19045;52.268;10.506;2023-03-14T05:06:58;97968.34;;;10.22;94.22
32638;BME280;19045;52.268;10.506;2023-03-14T05:09:24;97973.88;;;10.26;94.25
32638;BME280;19045;52.268;10.506;2023-03-14T05:11:51;97962.66;;;10.15;94.81
32638;BME280;19045;52.268;10.506;2023-03-14T05:14:18;97965.94;;;10.12;95.31
32638;BME280;19045;52.268;10.506;2023-03-14T05:16:46;97966.56;;;10.09;95.27
32638;BME280;19045;52.268;10.506;2023-03-14T05:19:12;97974.75;;;10.04;95.28
32638;BME280;19045;52.268;10.506;2023-03-14T05:21:39;97965.94;;;10.04;94.40
32638;BME280;19045;52.268;10.506;2023-03-14T05:24:06;97955.03;;;10.00;93.94
32638;BME280;19045;52.268;10.506;2023-03-14T05:26:32;97968.75;;;9.99;92.87
32638;BME280;19045;52.268;10.506;2023-03-14T05:28:59;97962.25;;;9.91;92.67
32638;BME280;19045;52.268;10.506;2023-03-14T05:31:25;97965.88;;;9.86;92.49
32638;BME280;19045;52.268;10.506;2023-03-14T05:33:53;97965.09;;;9.86;92.17
32638;BME280;19045;52.268;10.506;2023-03-14T05:36:20;97971.22;;;9.78;92.31
32638;BME280;19045;52.268;10.506;2023-03-14T05:38:46;97962.41;;;9.77;91.52
32638;BME280;19045;52.268;10.506;2023-03-14T05:41:13;97964.13;;;9.82;91.54
32638;BME280;19045;52.268;10.506;2023-03-14T05:43:40;97967.91;;;9.81;91.76
32638;BME280;19045;52.268;10.506;2023-03-14T05:46:06;97954.03;;;9.79;91.95
32638;BME280;19045;52.268;10.506;2023-03-14T05:48:33;97964.28;;;9.77;92.40
32638;BME280;19045;52.268;10.506;2023-03-14T05:51:00;97952.91;;;9.71;92.61
32638;BME280;19045;52.268;10.506;2023-03-14T05:53:27;97959.06;;;9.72;92.54
32638;BME280;19045;52.268;10.506;2023-03-14T05:55:56;97949.59;;;9.66;92.93
32638;BME280;19045;52.268;10.506;2023-03-14T05:58:23;97948.94;;;9.60;93.46
32638;BME280;19045;52.268;10.506;2023-03-14T06:00:50;97942.00;;;9.59;93.10
32638;BME280;19045;52.268;10.506;2023-03-14T06:03:16;97951.94;;;9.59;93.02
32638;BME280;19045;52.268;10.506;2023-03-14T06:05:43;97957.63;;;9.57;92.97
32638;BME280;19045;52.268;10.506;2023-03-14T06:08:11;97957.00;;;9.60;92.86
32638;BME280;19045;52.268;10.506;2023-03-14T06:10:38;97956.94;;;9.52;92.96
32638;BME280;19045;52.268;10.506;2023-03-14T06:13:04;97963.59;;;9.54;92.60
32638;BME280;19045;52.268;10.506;2023-03-14T06:15:31;97968.78;;;9.51;93.02
32638;BME280;19045;52.268;10.506;2023-03-14T06:17:58;97958.06;;;9.51;93.46
32638;BME280;19045;52.268;10.506;2023-03-14T06:20:25;97962.63;;;9.50;93.44
32638;BME280;19045;52.268;10.506;2023-03-14T06:22:51;97969.13;;;9.58;92.99
32638;BME280;19045;52.268;10.506;2023-03-14T06:25:19;97973.19;;;9.55;93.02
32638;BME280;19045;52.268;10.506;2023-03-14T06:27:46;97972.13;;;9.56;92.86
32638;BME280;19045;52.268;10.506;2023-03-14T06:30:13;97977.47;;;9.65;92.88
32638;BME280;19045;52.268;10.506;2023-03-14T06:32:39;97985.41;;;9.70;92.47
32638;BME280;19045;52.268;10.506;2023-03-14T06:35:07;97980.72;;;9.93;91.80
32638;BME280;19045;52.268;10.506;2023-03-14T06:37:34;97987.75;;;10.19;89.70
32638;BME280;19045;52.268;10.506;2023-03-14T06:40:00;97986.97;;;10.45;88.78
32638;BME280;19045;52.268;10.506;2023-03-14T06:42:29;97994.88;;;10.50;87.96
32638;BME280;19045;52.268;10.506;2023-03-14T06:44:55;97983.81;;;10.43;88.24
32638;BME280;19045;52.268;10.506;2023-03-14T06:47:22;97993.59;;;10.56;87.92
32638;BME280;19045;52.268;10.506;2023-03-14T06:49:48;97993.28;;;10.66;86.38
32638;BME280;19045;52.268;10.506;2023-03-14T06:52:15;97983.19;;;10.80;85.39
32638;BME280;19045;52.268;10.506;2023-03-14T06:54:42;97990.91;;;10.64;86.31
32638;BME280;19045;52.268;10.506;2023-03-14T06:57:09;97996.16;;;10.44;87.07
32638;BME280;19045;52.268;10.506;2023-03-14T06:59:36;97987.28;;;10.34;87.66
32638;BME280;19045;52.268;10.506;2023-03-14T07:02:03;97979.88;;;10.40;86.63
32638;BME280;19045;52.268;10.506;2023-03-14T07:04:30;97989.34;;;10.46;86.65
32638;BME280;19045;52.268;10.506;2023-03-14T07:06:56;97997.22;;;10.68;86.15
32638;BME280;19045;52.268;10.506;2023-03-14T07:09:23;98004.03;;;10.83;84.31
32638;BME280;19045;52.268;10.506;2023-03-14T07:11:49;98000.84;;;10.98;83.19
32638;BME280;19045;52.268;10.506;2023-03-14T07:14:16;97990.03;;;11.24;83.18
32638;BME280;19045;52.268;10.506;2023-03-14T07:16:44;97989.81;;;11.46;81.89
32638;BME280;19045;52.268;10.506;2023-03-14T07:19:10;97979.75;;;11.64;80.67
32638;BME280;19045;52.268;10.506;2023-03-14T07:21:37;97968.53;;;11.62;79.89
32638;BME280;19045;52.268;10.506;2023-03-14T07:24:04;97981.53;;;11.60;80.75
32638;BME280;19045;52.268;10.506;2023-03-14T07:26:31;97984.16;;;11.68;80.97
32638;BME280;19045;52.268;10.506;2023-03-14T07:28:57;97988.56;;;11.35;81.86
32638;BME280;19045;52.268;10.506;2023-03-14T07:31:24;97986.72;;;11.65;82.10
32638;BME280;19045;52.268;10.506;2023-03-14T07:33:52;97982.41;;;11.34;82.89
32638;BME280;19045;52.268;10.506;2023-03-14T07:36:18;97981.31;;;11.35;83.18
32638;BME280;19045;52.268;10.506;2023-03-14T07:38:45;97973.13;;;11.15;84.29
32638;BME280;19045;52.268;10.506;2023-03-14T07:41:12;97971.88;;;11.12;85.00
32638;BME280;19045;52.268;10.506;2023-03-14T07:43:38;97973.16;;;11.06;85.22
32638;BME280;19045;52.268;10.506;2023-03-14T07:46:05;97964.34;;;10.88;86.69
32638;BME280;19045;52.268;10.506;2023-03-14T07:48:32;97962.31;;;10.85;87.00
32638;BME280;19045;52.268;10.506;2023-03-14T07:51:00;97972.88;;;10.90;86.78
32638;BME280;19045;52.268;10.506;2023-03-14T07:53:27;97973.97;;;10.98;87.14
32638;BME280;19045;52.268;10.506;2023-03-14T07:55:54;97959.81;;;11.65;84.51
32638;BME280;19045;52.268;10.506;2023-03-14T07:58:21;97961.03;;;12.47;79.34
32638;BME280;19045;52.268;10.506;2023-03-14T08:00:48;97954.28;;;12.20;80.84
32638;BME280;19045;52.268;10.506;2023-03-14T08:03:15;97950.88;;;12.31;80.74
32638;BME280;19045;52.268;10.506;2023-03-14T08:05:42;97956.41;;;12.88;78.16
32638;BME280;19045;52.268;10.506;2023-03-14T08:08:10;97960.06;;;12.72;78.80
32638;BME280;19045;52.268;10.506;2023-03-14T08:10:36;97953.75;;;13.01;77.37
32638;BME280;19045;52.268;10.506;2023-03-14T08:13:03;97956.59;;;13.16;77.31
32638;BME280;19045;52.268;10.506;2023-03-14T08:15:30;97941.59;;;13.39;76.12
32638;BME280;19045;52.268;10.506;2023-03-14T08:17:57;97944.88;;;13.00;77.51
32638;BME280;19045;52.268;10.506;2023-03-14T08:20:24;97940.00;;;12.93;77.58
32638;BME280;19045;52.268;10.506;2023-03-14T08:22:51;97946.69;;;13.08;76.81
32638;BME280;19045;52.268;10.506;2023-03-14T08:25:19;97937.06;;;13.19;76.41
32638;BME280;19045;52.268;10.506;2023-03-14T08:27:46;97946.31;;;13.30;75.48
32638;BME280;19045;52.268;10.506;2023-03-14T08:30:14;97931.44;;;12.79;77.34
32638;BME280;19045;52.268;10.506;2023-03-14T08:32:41;97939.81;;;13.68;74.22
32638;BME280;19045;52.268;10.506;2023-03-14T08:35:09;97939.34;;;13.78;73.26
32638;BME280;19045;52.268;10.506;2023-03-14T08:37:36;97937.25;;;13.02;76.08
32638;BME280;19045;52.268;10.506;2023-03-14T08:40:05;97940.56;;;12.87;76.55
32638;BME280;19045;52.268;10.506;2023-03-14T08:42:34;97941.50;;;12.37;79.07
32638;BME280;19045;52.268;10.506;2023-03-14T08:45:00;97929.66;;;12.30;79.11
32638;BME280;19045;52.268;10.506;2023-03-14T08:47:27;97936.81;;;12.47;78.96
32638;BME280;19045;52.268;10.506;2023-03-14T08:49:54;97922.50;;;13.00;76.16
32638;BME280;19045;52.268;10.506;2023-03-14T08:52:20;97936.66;;;13.54;73.78
32638;BME280;19045;52.268;10.506;2023-03-14T08:54:47;97950.94;;;13.54;73.38
32638;BME280;19045;52.268;10.506;2023-03-14T08:57:13;97939.66;;;12.83;75.56
32638;BME280;19045;52.268;10.506;2023-03-14T08:59:41;97936.22;;;12.62;77.71
32638;BME280;19045;52.268;10.506;2023-03-14T09:02:09;97937.59;;;12.47;78.24
32638;BME280;19045;52.268;10.506;2023-03-14T09:04:36;97946.88;;;12.37;78.56
32638;BME280;19045;52.268;10.506;2023-03-14T09:07:03;97953.50;;;12.40;79.00
32638;BME280;19045;52.268;10.506;2023-03-14T09:09:30;97945.09;;;12.21;79.66
32638;BME280;19045;52.268;10.506;2023-03-14T09:11:56;97942.09;;;12.02;81.62
32638;BME280;19045;52.268;10.506;2023-03-14T09:14:23;97955.47;;;11.89;82.52
32638;BME280;19045;52.268;10.506;2023-03-14T09:16:51;97944.44;;;12.03;81.62
32638;BME280;19045;52.268;10.506;2023-03-14T09:19:18;97943.66;;;12.03;82.29
32638;BME280;19045;52.268;10.506;2023-03-14T09:21:44;97951.34;;;12.33;81.11
32638;BME280;19045;52.268;10.506;2023-03-14T09:24:11;97936.84;;;12.26;81.06
32638;BME280;19045;52.268;10.506;2023-03-14T09:26:38;97961.22;;;12.00;82.19
32638;BME280;19045;52.268;10.506;2023-03-14T09:29:04;97951.13;;;11.97;82.78
32638;BME280;19045;52.268;10.506;2023-03-14T09:31:31;97952.63;;;11.86;83.86
32638;BME280;19045;52.268;10.506;2023-03-14T09:33:59;97962.69;;;11.98;84.25
32638;BME280;19045;52.268;10.506;2023-03-14T09:36:25;97963.22;;;12.12;84.25
32638;BME280;19045;52.268;10.506;2023-03-14T09:38:52;97964.06;;;13.31;79.38
32638;BME280;19045;52.268;10.506;2023-03-14T09:41:23;97959.66;;;13.39;75.95
32638;BME280;19045;52.268;10.506;2023-03-14T09:43:52;97954.06;;;13.92;73.69
32638;BME280;19045;52.268;10.506;2023-03-14T09:46:22;97953.06;;;15.05;68.53
32638;BME280;19045;52.268;10.506;2023-03-14T09:48:48;97953.69;;;15.14;66.77
32638;BME280;19045;52.268;10.506;2023-03-14T09:51:18;97962.75;;;14.50;69.87
32638;BME280;19045;52.268;10.506;2023-03-14T09:53:48;97965.88;;;13.88;72.61
32638;BME280;19045;52.268;10.506;2023-03-14T09:56:17;97971.84;;;13.57;75.29
32638;BME280;19045;52.268;10.506;2023-03-14T09:58:49;97973.63;;;13.29;76.67
32638;BME280;19045;52.268;10.506;2023-03-14T10:01:20;97981.03;;;13.32;76.77
32638;BME280;19045;52.268;10.506;2023-03-14T10:03:48;97968.56;;;13.39;75.90
32638;BME280;19045;52.268;10.506;2023-03-14T10:06:18;97968.88;;;13.26;74.96
32638;BME280;19045;52.268;10.506;2023-03-14T10:08:45;97979.81;;;13.54;73.35
32638;BME280;19045;52.268;10.506;2023-03-14T10:11:14;97974.06;;;13.31;74.28
32638;BME280;19045;52.268;10.506;2023-03-14T10:13:50;97966.75;;;14.28;70.40
32638;BME280;19045;52.268;10.506;2023-03-14T10:16:29;97970.25;;;13.44;73.23
32638;BME280;19045;52.268;10.506;2023-03-14T10:19:02;97967.75;;;13.15;73.70
32638;BME280;19045;52.268;10.506;2023-03-14T10:21:31;97978.22;;;13.28;73.54
32638;BME280;19045;52.268;10.506;2023-03-14T10:24:19;97964.31;;;13.63;73.07
32638;BME280;19045;52.268;10.506;2023-03-14T10:26:48;97978.47;;;13.60;73.96
32638;BME280;19045;52.268;10.506;2023-03-14T10:29:15;97973.50;;;13.50;74.85
32638;BME280;19045;52.268;10.506;2023-03-14T10:31:53;97971.72;;;13.54;74.55
32638;BME280;19045;52.268;10.506;2023-03-14T10:34:25;97952.91;;;15.44;66.53
32638;BME280;19045;52.268;10.506;2023-03-14T10:36:54;97961.63;;;16.35;62.66
32638;BME280;19045;52.268;10.506;2023-03-14T10:39:28;97971.06;;;16.07;62.97
32638;BME280;19045;52.268;10.506;2023-03-14T10:42:03;97975.22;;;15.10;66.47
32638;BME280;19045;52.268;10.506;2023-03-14T10:44:31;97967.75;;;16.32;63.06
32638;BME280;19045;52.268;10.506;2023-03-14T10:47:01;97971.91;;;17.45;58.04
32638;BME280;19045;52.268;10.506;2023-03-14T10:49:30;97974.94;;;17.63;58.26
32638;BME280;19045;52.268;10.506;2023-03-14T10:52:03;97976.59;;;19.46;52.98
32638;BME280;19045;52.268;10.506;2023-03-14T10:54:38;97970.56;;;20.97;47.90
32638;BME280;19045;52.268;10.506;2023-03-14T10:57:05;97977.88;;;19.59;50.89
32638;BME280;19045;52.268;10.506;2023-03-14T10:59:35;97989.50;;;18.82;53.63
32638;BME280;19045;52.268;10.506;2023-03-14T11:02:10;97990.63;;;16.89;58.66
32638;BME280;19045;52.268;10.506;2023-03-14T11:04:55;97999.25;;;14.20;69.82
32638;BME280;19045;52.268;10.506;2023-03-14T11:07:29;97988.91;;;13.85;73.12
32638;BME280;19045;52.268;10.506;2023-03-14T11:10:01;97997.34;;;13.48;74.88
32638;BME280;19045;52.268;10.506;2023-03-14T11:12:38;97998.84;;;13.12;76.76
32638;BME280;19045;52.268;10.506;2023-03-14T11:15:13;97993.94;;;12.73;79.55
32638;BME280;19045;52.268;10.506;2023-03-14T11:17:46;97997.91;;;12.55;81.11
32638;BME280;19045;52.268;10.506;2023-03-14T11:20:25;97993.72;;;12.45;82.00
32638;BME280;19045;52.268;10.506;2023-03-14T11:23:00;97994.88;;;12.35;82.48
32638;BME280;19045;52.268;10.506;2023-03-14T11:25:32;97988.44;;;12.49;81.55
32638;BME280;19045;52.268;10.506;2023-03-14T11:28:09;97989.56;;;12.48;82.03
32638;BME280;19045;52.268;10.506;2023-03-14T11:30:43;97991.94;;;12.49;81.91
32638;BME280;19045;52.268;10.506;2023-03-14T11:33:16;97989.78;;;12.42;81.96
32638;BME280;19045;52.268;10.506;2023-03-14T11:35:49;97974.00;;;12.32;80.87
32638;BME280;19045;52.268;10.506;2023-03-14T11:38:29;97972.88;;;12.33;81.07
32638;BME280;19045;52.268;10.506;2023-03-14T11:40:58;97978.59;;;12.53;80.68
32638;BME280;19045;52.268;10.506;2023-03-14T11:43:29;97973.38;;;12.89;79.83
32638;BME280;19045;52.268;10.506;2023-03-14T11:46:05;97975.41;;;12.92;78.87
32638;BME280;19045;52.268;10.506;2023-03-14T11:48:38;97964.13;;;12.78;79.56
32638;BME280;19045;52.268;10.506;2023-03-14T11:51:13;97966.66;;;13.07;79.05
32638;BME280;19045;52.268;10.506;2023-03-14T11:53:58;97963.81;;;13.12;78.53
32638;BME280;19045;52.268;10.506;2023-03-14T11:56:33;97966.78;;;12.99;78.75
32638;BME280;19045;52.268;10.506;2023-03-14T11:59:04;97969.34;;;12.95;78.58
32638;BME280;19045;52.268;10.506;2023-03-14T12:01:40;97969.00;;;12.64;80.21
32638;BME280;19045;52.268;10.506;2023-03-14T12:04:13;97978.25;;;12.54;82.18
32638;BME280;19045;52.268;10.506;2023-03-14T12:06:46;97963.56;;;12.31;84.69
32638;BME280;19045;52.268;10.506;2023-03-14T12:09:16;97973.59;;;12.22;85.57
32638;BME280;19045;52.268;10.506;2023-03-14T12:11:46;97975.25;;;11.85;89.76
32638;BME280;19045;52.268;10.506;2023-03-14T12:14:20;97977.75;;;11.52;96.49
32638;BME280;19045;52.268;10.506;2023-03-14T12:16:47;97999.66;;;11.25;99.84
32638;BME280;19045;52.268;10.506;2023-03-14T12:19:32;98086.00;;;11.23;100.00
32638;BME280;19045;52.268;10.506;2023-03-14T12:22:05;98102.09;;;10.55;92.98
32638;BME280;19045;52.268;10.506;2023-03-14T12:24:36;98109.91;;;10.17;93.11
32638;BME280;19045;52.268;10.506;2023-03-14T12:27:04;98103.81;;;9.72;94.79
32638;BME280;19045;52.268;10.506;2023-03-14T12:29:57;98107.63;;;9.49;95.29
32638;BME280;19045;52.268;10.506;2023-03-14T12:32:25;98123.31;;;9.33;95.80
32638;BME280;19045;52.268;10.506;2023-03-14T12:34:52;98141.75;;;9.12;97.42
32638;BME280;19045;52.268;10.506;2023-03-14T12:37:34;98152.78;;;9.11;97.67
32638;BME280;19045;52.268;10.506;2023-03-14T12:40:21;98168.28;;;9.00;97.69
32638;BME280;19045;52.268;10.506;2023-03-14T12:42:58;98176.91;;;8.97;97.55
32638;BME280;19045;52.268;10.506;2023-03-14T12:45:27;98191.00;;;8.89;97.30
32638;BME280;19045;52.268;10.506;2023-03-14T12:48:10;98209.75;;;8.89;97.50
32638;BME280;19045;52.268;10.506;2023-03-14T12:50:46;98211.97;;;8.60;96.88
32638;BME280;19045;52.268;10.506;2023-03-14T12:53:45;98245.84;;;8.51;96.80
32638;BME280;19045;52.268;10.506;2023-03-14T12:56:23;98247.81;;;8.45;94.95
32638;BME280;19045;52.268;10.506;2023-03-14T13:01:47;98280.63;;;8.05;94.00